Peotone Weather
Station Historical Data
Daily Summary for April 30, 2012 Units:  English    Metric   Both
« Previous Day
Next Day »
Daily Weekly Monthly Yearly Custom
  High: Low: Average:
Temperature: 61.3 °F 48.8 °F 55.9 °F
Dew Point: 59.6 °F 44.9 °F 53.3 °F
Humidity: 95% 84% 91%
Wind Speed: 11.0mph 0.0mph 4.1mph
Wind Gust: 16.0mph - -
Wind- - SSW
Pressure: 30.04 in 29.90 in -
Precipitation: 0.34 in    
Historical Graphs
 
 
Tabular Data for April 30, 2012
Time Temperature Dew Point Pressure Wind Wind Speed Wind Gust Humidity Rainfall Rate (Hourly) solar Conditions
00:00 50.8 °F 47.1 °F 30.04 in ESE 6.0 mph 13.0 mph 87% 0.00 in 0.00 W/m2
00:10 50.7 °F 46.7 °F 30.04 in ESE 7.0 mph 11.0 mph 86% 0.00 in 0.00 W/m2
00:20 50.7 °F 46.7 °F 30.03 in East 5.0 mph 11.0 mph 86% 0.00 in 0.00 W/m2
00:30 50.7 °F 46.7 °F 30.03 in East 6.0 mph 10.0 mph 86% 0.00 in 0.00 W/m2
00:40 50.6 °F 46.6 °F 30.02 in East 4.0 mph 7.0 mph 86% 0.00 in 0.00 W/m2
00:50 50.5 °F 46.5 °F 30.01 in ESE 7.0 mph 12.0 mph 86% 0.00 in 0.00 W/m2
01:00 50.5 °F 46.2 °F 30.02 in ESE 2.0 mph 11.0 mph 85% 0.00 in 0.00 W/m2
01:10 50.5 °F 46.2 °F 30.01 in East 2.0 mph 11.0 mph 85% 0.00 in 0.00 W/m2
01:20 50.5 °F 46.2 °F 30.00 in ESE 9.0 mph 10.0 mph 85% 0.00 in 0.00 W/m2
01:30 50.5 °F 46.2 °F 30.00 in ESE 3.0 mph 12.0 mph 85% 0.00 in 0.00 W/m2
01:40 50.4 °F 45.8 °F 30.00 in ESE 3.0 mph 10.0 mph 84% 0.00 in 0.00 W/m2
01:50 50.2 °F 45.9 °F 29.99 in ESE 6.0 mph 9.0 mph 85% 0.00 in 0.00 W/m2
02:00 50.1 °F 46.1 °F 29.99 in East 3.0 mph 8.0 mph 86% 0.00 in 0.00 W/m2
02:10 50.0 °F 46.0 °F 29.99 in ESE 4.0 mph 8.0 mph 86% 0.00 in 0.00 W/m2
02:20 50.0 °F 46.0 °F 29.99 in East 5.0 mph 11.0 mph 86% 0.00 in 0.00 W/m2
02:30 50.1 °F 46.1 °F 29.99 in ESE 2.0 mph 12.0 mph 86% 0.00 in 0.00 W/m2
02:40 49.9 °F 45.9 °F 29.98 in ESE 4.0 mph 11.0 mph 86% 0.00 in 0.00 W/m2
02:50 49.4 °F 45.1 °F 29.97 in ESE 3.0 mph 11.0 mph 85% 0.00 in 0.00 W/m2
03:00 49.0 °F 45.0 °F 29.97 in ESE 3.0 mph 11.0 mph 86% 0.00 in 0.00 W/m2
03:10 48.9 °F 44.9 °F 29.97 in ESE 4.0 mph 10.0 mph 86% 0.00 in 0.00 W/m2
03:20 49.0 °F 45.0 °F 29.96 in ESE 4.0 mph 11.0 mph 86% 0.00 in 0.00 W/m2
03:30 48.8 °F 45.1 °F 29.95 in ESE 4.0 mph 12.0 mph 87% 0.00 in 0.00 W/m2
03:40 48.8 °F 45.1 °F 29.95 in East 10.0 mph 10.0 mph 87% 0.00 in 0.00 W/m2
03:50 48.9 °F 45.2 °F 29.94 in East 4.0 mph 11.0 mph 87% 0.00 in 0.00 W/m2
04:00 49.0 °F 45.3 °F 29.95 in SE 6.0 mph 12.0 mph 87% 0.00 in 0.00 W/m2
04:10 49.1 °F 45.4 °F 29.94 in ESE 6.0 mph 10.0 mph 87% 0.00 in 0.00 W/m2
04:20 49.0 °F 45.0 °F 29.94 in ESE 3.0 mph 10.0 mph 86% 0.00 in 0.00 W/m2
04:30 48.9 °F 45.2 °F 29.95 in ESE 5.0 mph 7.0 mph 87% 0.00 in 0.00 W/m2
04:40 49.0 °F 45.3 °F 29.95 in ESE 7.0 mph 11.0 mph 87% 0.00 in 0.00 W/m2
04:50 49.2 °F 45.5 °F 29.95 in ESE 4.0 mph 10.0 mph 87% 0.00 in 0.00 W/m2
05:00 49.4 °F 45.7 °F 29.95 in ESE 7.0 mph 10.0 mph 87% 0.00 in 0.00 W/m2
05:10 49.5 °F 45.5 °F 29.94 in ESE 5.0 mph 11.0 mph 86% 0.00 in 0.00 W/m2
05:20 49.6 °F 45.9 °F 29.94 in ESE 5.0 mph 12.0 mph 87% 0.00 in 0.00 W/m2
05:30 49.7 °F 45.7 °F 29.95 in SSE 6.0 mph 9.0 mph 86% 0.00 in 0.00 W/m2
05:40 49.6 °F 45.9 °F 29.95 in ESE 5.0 mph 7.0 mph 87% 0.00 in 0.00 W/m2
05:50 49.8 °F 46.1 °F 29.96 in ESE 4.0 mph 6.0 mph 87% 0.00 in 0.00 W/m2
06:00 49.9 °F 46.2 °F 29.97 in ESE 5.0 mph 6.0 mph 87% 0.00 in 0.00 W/m2
06:10 49.9 °F 46.2 °F 29.96 in ESE 4.0 mph 10.0 mph 87% 0.00 in 11.00 W/m2
06:20 49.8 °F 46.4 °F 29.96 in SE 2.0 mph 7.0 mph 88% 0.00 in 14.00 W/m2
06:30 49.9 °F 46.5 °F 29.97 in SE 3.0 mph 6.0 mph 88% 0.00 in 19.00 W/m2
06:40 50.0 °F 46.9 °F 29.97 in SE 2.0 mph 5.0 mph 89% 0.00 in 28.00 W/m2
06:50 50.2 °F 47.1 °F 29.97 in SE 1.0 mph 4.0 mph 89% 0.00 in 42.00 W/m2
07:00 50.4 °F 47.3 °F 29.97 in SE 3.0 mph 5.0 mph 89% 0.00 in 53.00 W/m2
07:10 50.5 °F 47.4 °F 29.97 in SE 2.0 mph 6.0 mph 89% 0.00 in 77.00 W/m2
07:20 50.9 °F 47.8 °F 29.97 in SE 2.0 mph 6.0 mph 89% 0.00 in 81.00 W/m2
07:30 51.3 °F 48.2 °F 29.97 in SE 5.0 mph 6.0 mph 89% 0.00 in 76.00 W/m2
07:40 52.1 °F 49.3 °F 29.98 in SSE 5.0 mph 9.0 mph 90% 0.00 in 56.00 W/m2
07:50 52.7 °F 49.8 °F 29.98 in SSE 3.0 mph 7.0 mph 90% 0.00 in 60.00 W/m2
08:00 53.3 °F 50.5 °F 29.98 in SSE 1.0 mph 6.0 mph 90% 0.00 in 46.00 W/m2
08:10 53.8 °F 50.9 °F 29.97 in SSE 3.0 mph 5.0 mph 90% 0.00 in 53.00 W/m2
08:20 54.4 °F 51.8 °F 29.95 in SSE 1.0 mph 5.0 mph 91% 0.00 in 98.00 W/m2
08:30 55.5 °F 52.9 °F 29.94 in Calm   3.0 mph 91% 0.00 in 190.00 W/m2
08:40 56.0 °F 52.8 °F 29.93 in Calm   4.0 mph 89% 0.00 in 144.00 W/m2
08:50 56.3 °F 53.4 °F 29.92 in SSE 2.0 mph 4.0 mph 90% 0.00 in 151.00 W/m2
09:00 56.9 °F 54.3 °F 29.92 in Calm   3.0 mph 91% 0.00 in 148.00 W/m2
09:10 57.8 °F 55.2 °F 29.93 in SSE 3.0 mph 3.0 mph 91% 0.00 in 202.00 W/m2
09:20 59.1 °F 56.2 °F 29.93 in SSE 1.0 mph 5.0 mph 90% 0.00 in 120.00 W/m2
09:30 58.9 °F 56.0 °F 29.94 in SSE 3.0 mph 5.0 mph 90% 0.00 in 40.00 W/m2
09:40 58.9 °F 56.3 °F 29.93 in SSE 1.0 mph 4.0 mph 91% 0.00 in 209.00 W/m2
09:50 59.7 °F 56.8 °F 29.92 in Calm   2.0 mph 90% 0.00 in 193.00 W/m2
10:00 60.4 °F 57.5 °F 29.90 in Calm   2.0 mph 90% 0.00 in 169.00 W/m2
10:10 60.8 °F 57.5 °F 29.94 in SSE 2.0 mph 6.0 mph 89% 0.00 in 44.00 W/m2
10:20 60.7 °F 57.8 °F 29.94 in SSE 2.0 mph 5.0 mph 90% 0.00 in 46.00 W/m2
10:30 60.6 °F 58.0 °F 29.94 in SSW 6.0 mph 9.0 mph 91% 0.02 in 63.00 W/m2
10:40 60.6 °F 58.3 °F 29.94 in SSW 3.0 mph 6.0 mph 92% 0.03 in 88.00 W/m2
10:50 60.6 °F 58.3 °F 29.94 in SW 5.0 mph 10.0 mph 92% 0.04 in 98.00 W/m2
11:00 60.6 °F 58.6 °F 29.94 in SW 4.0 mph 9.0 mph 93% 0.04 in 47.00 W/m2
11:10 60.3 °F 58.3 °F 29.94 in SW 2.0 mph 7.0 mph 93% 0.05 in 46.00 W/m2
11:20 60.2 °F 58.2 °F 29.94 in SW 2.0 mph 4.0 mph 93% 0.05 in 53.00 W/m2
11:30 60.2 °F 58.2 °F 29.94 in SW 3.0 mph 5.0 mph 93% 0.05 in 65.00 W/m2
11:40 60.3 °F 58.6 °F 29.95 in SW 3.0 mph 7.0 mph 94% 0.03 in 79.00 W/m2
11:50 60.3 °F 58.6 °F 29.94 in WSW 3.0 mph 11.0 mph 94% 0.02 in 58.00 W/m2
12:00 60.3 °F 58.6 °F 29.94 in WSW 3.0 mph 7.0 mph 94% 0.04 in 63.00 W/m2
12:10 60.3 °F 58.6 °F 29.94 in WSW 2.0 mph 6.0 mph 94% 0.06 in 95.00 W/m2
12:20 60.4 °F 58.7 °F 29.93 in SW 3.0 mph 8.0 mph 94% 0.07 in 111.00 W/m2
12:30 60.5 °F 58.8 °F 29.94 in WSW 4.0 mph 7.0 mph 94% 0.09 in 67.00 W/m2
12:40 60.2 °F 58.5 °F 29.93 in WSW 5.0 mph 9.0 mph 94% 0.11 in 79.00 W/m2
12:50 60.4 °F 59.0 °F 29.93 in WSW 2.0 mph 9.0 mph 95% 0.12 in 69.00 W/m2
13:00 60.4 °F 59.0 °F 29.93 in WSW 3.0 mph 7.0 mph 95% 0.14 in 91.00 W/m2
13:10 60.3 °F 58.9 °F 29.93 in WSW 7.0 mph 10.0 mph 95% 0.13 in 97.00 W/m2
13:20 60.4 °F 59.0 °F 29.92 in WSW 6.0 mph 11.0 mph 95% 0.12 in 105.00 W/m2
13:30 60.5 °F 59.1 °F 29.92 in WSW 11.0 mph 11.0 mph 95% 0.11 in 114.00 W/m2
13:40 60.6 °F 59.2 °F 29.92 in WSW 2.0 mph 12.0 mph 95% 0.10 in 169.00 W/m2
13:50 61.0 °F 59.6 °F 29.92 in WSW 11.0 mph 12.0 mph 95% 0.09 in 109.00 W/m2
14:00 60.9 °F 59.5 °F 29.93 in WSW 4.0 mph 11.0 mph 95% 0.08 in 63.00 W/m2
14:10 60.6 °F 59.2 °F 29.93 in WSW 5.0 mph 9.0 mph 95% 0.07 in 56.00 W/m2
14:20 60.6 °F 59.2 °F 29.93 in WSW 4.0 mph 10.0 mph 95% 0.07 in 188.00 W/m2
14:30 60.8 °F 59.4 °F 29.93 in WSW 4.0 mph 12.0 mph 95% 0.08 in 127.00 W/m2
14:40 60.5 °F 59.1 °F 29.93 in West 6.0 mph 11.0 mph 95% 0.09 in 77.00 W/m2
14:50 60.3 °F 58.9 °F 29.92 in WNW 6.0 mph 9.0 mph 95% 0.09 in 135.00 W/m2
15:00 60.4 °F 59.0 °F 29.92 in West 6.0 mph 9.0 mph 95% 0.08 in 158.00 W/m2
15:10 60.4 °F 59.0 °F 29.91 in West 6.0 mph 8.0 mph 95% 0.08 in 188.00 W/m2
15:20 60.6 °F 59.2 °F 29.91 in West 4.0 mph 10.0 mph 95% 0.08 in 181.00 W/m2
15:30 60.6 °F 59.2 °F 29.90 in West 10.0 mph 10.0 mph 95% 0.06 in 285.00 W/m2
15:40 60.9 °F 59.5 °F 29.91 in WNW 11.0 mph 12.0 mph 95% 0.04 in 271.00 W/m2
16:00 61.3 °F 59.6 °F 29.91 in WNW 9.0 mph 12.0 mph 94% 0.01 in 179.00 W/m2
16:10 60.8 °F 58.8 °F 29.91 in WNW 10.0 mph 15.0 mph 93% 0.01 in 83.00 W/m2
16:20 60.5 °F 58.5 °F 29.91 in West 4.0 mph 13.0 mph 93% 0.01 in 128.00 W/m2
16:30 60.4 °F 58.4 °F 29.91 in WNW 9.0 mph 12.0 mph 93% 0.00 in 70.00 W/m2
16:40 60.0 °F 58.0 °F 29.91 in WNW 6.0 mph 16.0 mph 93% 0.00 in 91.00 W/m2
16:50 59.9 °F 57.9 °F 29.90 in WNW 4.0 mph 12.0 mph 93% 0.00 in 176.00 W/m2
17:00 59.9 °F 57.9 °F 29.90 in WNW 6.0 mph 13.0 mph 93% 0.00 in 146.00 W/m2
17:10 60.0 °F 58.0 °F 29.91 in WNW 5.0 mph 8.0 mph 93% 0.00 in 81.00 W/m2
17:20 59.9 °F 57.9 °F 29.90 in NW 6.0 mph 9.0 mph 93% 0.00 in 118.00 W/m2
17:30 59.8 °F 57.8 °F 29.90 in WNW 8.0 mph 13.0 mph 93% 0.00 in 98.00 W/m2
17:40 59.8 °F 57.5 °F 29.91 in WNW 4.0 mph 11.0 mph 92% 0.00 in 91.00 W/m2
17:50 59.9 °F 57.6 °F 29.91 in West 3.0 mph 9.0 mph 92% 0.00 in 60.00 W/m2
18:00 59.8 °F 57.5 °F 29.91 in WNW 5.0 mph 11.0 mph 92% 0.00 in 69.00 W/m2
18:10 59.8 °F 57.5 °F 29.91 in WNW 4.0 mph 10.0 mph 92% 0.00 in 49.00 W/m2
18:20 59.8 °F 57.5 °F 29.92 in WNW 4.0 mph 9.0 mph 92% 0.00 in 19.00 W/m2
18:30 59.8 °F 57.5 °F 29.92 in WNW 6.0 mph 6.0 mph 92% 0.00 in 23.00 W/m2
18:40 59.7 °F 57.4 °F 29.92 in WNW 1.0 mph 6.0 mph 92% 0.00 in 14.00 W/m2
18:50 59.7 °F 57.7 °F 29.92 in WNW 2.0 mph 6.0 mph 93% 0.00 in 12.00 W/m2
19:00 59.7 °F 57.7 °F 29.92 in WNW 2.0 mph 5.0 mph 93% 0.00 in 7.00 W/m2
19:10 59.6 °F 57.3 °F 29.92 in Calm   6.0 mph 92% 0.00 in 0.00 W/m2
19:20 59.5 °F 57.5 °F 29.92 in WNW 7.0 mph 9.0 mph 93% 0.00 in 0.00 W/m2
19:30 59.1 °F 57.1 °F 29.93 in WNW 7.0 mph 11.0 mph 93% 0.00 in 0.00 W/m2
19:40 58.7 °F 56.7 °F 29.93 in WNW 4.0 mph 11.0 mph 93% 0.00 in 0.00 W/m2
19:50 58.4 °F 56.4 °F 29.93 in WNW 4.0 mph 11.0 mph 93% 0.00 in 0.00 W/m2
20:00 58.3 °F 56.3 °F 29.93 in WNW 4.0 mph 7.0 mph 93% 0.00 in 0.00 W/m2
20:10 58.2 °F 56.2 °F 29.94 in WNW 4.0 mph 8.0 mph 93% 0.00 in 0.00 W/m2
20:20 58.1 °F 56.1 °F 29.94 in WNW 3.0 mph 6.0 mph 93% 0.00 in 0.00 W/m2
20:30 57.9 °F 55.9 °F 29.94 in WNW 2.0 mph 6.0 mph 93% 0.00 in 0.00 W/m2
20:40 57.9 °F 55.9 °F 29.95 in Calm   7.0 mph 93% 0.00 in 0.00 W/m2
20:50 57.8 °F 55.8 °F 29.96 in WNW 4.0 mph 6.0 mph 93% 0.00 in 0.00 W/m2
21:00 57.7 °F 55.7 °F 29.96 in WNW 3.0 mph 7.0 mph 93% 0.00 in 0.00 W/m2
21:10 57.6 °F 55.9 °F 29.96 in WNW 5.0 mph 6.0 mph 94% 0.00 in 0.00 W/m2
21:20 57.3 °F 55.6 °F 29.97 in West 4.0 mph 7.0 mph 94% 0.00 in 0.00 W/m2
21:30 57.1 °F 55.4 °F 29.97 in West 3.0 mph 7.0 mph 94% 0.00 in 0.00 W/m2
21:40 57.0 °F 55.3 °F 29.97 in West 1.0 mph 6.0 mph 94% 0.00 in 0.00 W/m2
21:50 56.9 °F 55.2 °F 29.98 in WNW 3.0 mph 6.0 mph 94% 0.00 in 0.00 W/m2
22:00 56.8 °F 55.1 °F 29.98 in WNW 4.0 mph 7.0 mph 94% 0.00 in 0.00 W/m2
22:10 56.7 °F 55.0 °F 29.98 in WNW 2.0 mph 9.0 mph 94% 0.00 in 0.00 W/m2
22:20 56.6 °F 54.9 °F 29.97 in WNW 3.0 mph 6.0 mph 94% 0.00 in 0.00 W/m2
22:30 56.4 °F 54.7 °F 29.98 in WNW 3.0 mph 7.0 mph 94% 0.00 in 0.00 W/m2
22:40 56.3 °F 54.6 °F 29.98 in WNW 4.0 mph 10.0 mph 94% 0.00 in 0.00 W/m2
22:50 56.1 °F 54.4 °F 29.98 in WNW 4.0 mph 9.0 mph 94% 0.00 in 0.00 W/m2
23:00 55.9 °F 53.9 °F 29.98 in WNW 5.0 mph 9.0 mph 93% 0.00 in 0.00 W/m2
23:10 55.9 °F 54.2 °F 29.98 in WNW 2.0 mph 9.0 mph 94% 0.00 in 0.00 W/m2
23:20 55.5 °F 53.5 °F 29.98 in WNW 5.0 mph 12.0 mph 93% 0.00 in 0.00 W/m2
23:30 55.1 °F 53.1 °F 29.98 in WNW 7.0 mph 12.0 mph 93% 0.00 in 0.00 W/m2
23:40 54.9 °F 53.2 °F 29.98 in WNW 3.0 mph 11.0 mph 94% 0.00 in 0.00 W/m2
23:50 54.8 °F 53.1 °F 29.98 in Calm   8.0 mph 94% 0.00 in 0.00 W/m2
Peotone Weather Data
Compliments of Weather Underground